sensor_id;sensor_type;location;lat;lon;timestamp;P1;durP1;ratioP1;P2;durP2;ratioP2
2494;SDS011;1258;48.336;14.322;2023-10-08T00:01:17;3.30;;;2.33;;
2494;SDS011;1258;48.336;14.322;2023-10-08T00:03:45;3.03;;;1.70;;
2494;SDS011;1258;48.336;14.322;2023-10-08T00:06:14;2.90;;;2.10;;
2494;SDS011;1258;48.336;14.322;2023-10-08T00:08:42;2.73;;;2.17;;
2494;SDS011;1258;48.336;14.322;2023-10-08T00:11:10;3.57;;;2.27;;
2494;SDS011;1258;48.336;14.322;2023-10-08T00:13:37;2.33;;;1.30;;
2494;SDS011;1258;48.336;14.322;2023-10-08T00:16:06;3.10;;;2.10;;
2494;SDS011;1258;48.336;14.322;2023-10-08T00:18:36;2.57;;;1.97;;
2494;SDS011;1258;48.336;14.322;2023-10-08T00:21:05;3.20;;;2.30;;
2494;SDS011;1258;48.336;14.322;2023-10-08T00:23:42;2.30;;;1.30;;
2494;SDS011;1258;48.336;14.322;2023-10-08T00:26:18;3.30;;;2.00;;
2494;SDS011;1258;48.336;14.322;2023-10-08T00:28:52;2.70;;;1.40;;
2494;SDS011;1258;48.336;14.322;2023-10-08T00:31:21;3.37;;;2.10;;
2494;SDS011;1258;48.336;14.322;2023-10-08T00:33:51;2.10;;;1.60;;
2494;SDS011;1258;48.336;14.322;2023-10-08T00:36:18;2.90;;;1.93;;
2494;SDS011;1258;48.336;14.322;2023-10-08T00:38:45;2.60;;;2.10;;
2494;SDS011;1258;48.336;14.322;2023-10-08T00:41:15;2.50;;;1.63;;
2494;SDS011;1258;48.336;14.322;2023-10-08T00:43:48;3.10;;;1.80;;
2494;SDS011;1258;48.336;14.322;2023-10-08T00:46:16;4.80;;;2.10;;
2494;SDS011;1258;48.336;14.322;2023-10-08T00:48:48;3.33;;;2.23;;
2494;SDS011;1258;48.336;14.322;2023-10-08T00:51:17;3.47;;;2.50;;
2494;SDS011;1258;48.336;14.322;2023-10-08T00:53:52;3.10;;;2.20;;
2494;SDS011;1258;48.336;14.322;2023-10-08T00:56:25;3.77;;;2.67;;
2494;SDS011;1258;48.336;14.322;2023-10-08T00:59:11;3.57;;;2.70;;
2494;SDS011;1258;48.336;14.322;2023-10-08T01:01:40;3.30;;;2.30;;
2494;SDS011;1258;48.336;14.322;2023-10-08T01:04:14;3.90;;;2.50;;
2494;SDS011;1258;48.336;14.322;2023-10-08T01:06:42;2.97;;;2.20;;
2494;SDS011;1258;48.336;14.322;2023-10-08T01:09:09;2.77;;;1.93;;
2494;SDS011;1258;48.336;14.322;2023-10-08T01:11:43;2.53;;;1.63;;
2494;SDS011;1258;48.336;14.322;2023-10-08T01:14:16;2.60;;;2.07;;
2494;SDS011;1258;48.336;14.322;2023-10-08T01:16:46;3.33;;;2.07;;
2494;SDS011;1258;48.336;14.322;2023-10-08T01:19:17;2.67;;;1.60;;
2494;SDS011;1258;48.336;14.322;2023-10-08T01:21:45;2.97;;;1.87;;
2494;SDS011;1258;48.336;14.322;2023-10-08T01:24:14;3.30;;;2.10;;
2494;SDS011;1258;48.336;14.322;2023-10-08T01:26:43;3.60;;;2.33;;
2494;SDS011;1258;48.336;14.322;2023-10-08T01:29:10;4.27;;;2.90;;
2494;SDS011;1258;48.336;14.322;2023-10-08T01:31:44;3.27;;;2.30;;
2494;SDS011;1258;48.336;14.322;2023-10-08T01:34:12;3.23;;;2.20;;
2494;SDS011;1258;48.336;14.322;2023-10-08T01:36:42;4.43;;;2.00;;
2494;SDS011;1258;48.336;14.322;2023-10-08T01:39:10;3.40;;;2.10;;
2494;SDS011;1258;48.336;14.322;2023-10-08T01:41:42;2.63;;;2.13;;
2494;SDS011;1258;48.336;14.322;2023-10-08T01:44:09;5.20;;;2.50;;
2494;SDS011;1258;48.336;14.322;2023-10-08T01:46:37;2.70;;;1.83;;
2494;SDS011;1258;48.336;14.322;2023-10-08T01:49:05;3.07;;;2.03;;
2494;SDS011;1258;48.336;14.322;2023-10-08T01:51:39;2.57;;;2.10;;
2494;SDS011;1258;48.336;14.322;2023-10-08T01:54:11;2.60;;;2.13;;
2494;SDS011;1258;48.336;14.322;2023-10-08T01:56:44;3.77;;;2.10;;
2494;SDS011;1258;48.336;14.322;2023-10-08T01:59:11;2.37;;;1.60;;
2494;SDS011;1258;48.336;14.322;2023-10-08T02:01:40;2.67;;;1.93;;
2494;SDS011;1258;48.336;14.322;2023-10-08T02:04:08;3.40;;;2.03;;
2494;SDS011;1258;48.336;14.322;2023-10-08T02:06:37;3.40;;;1.83;;
2494;SDS011;1258;48.336;14.322;2023-10-08T02:09:05;2.90;;;1.87;;
2494;SDS011;1258;48.336;14.322;2023-10-08T02:11:45;3.33;;;1.87;;
2494;SDS011;1258;48.336;14.322;2023-10-08T02:14:15;4.23;;;2.20;;
2494;SDS011;1258;48.336;14.322;2023-10-08T02:16:42;2.70;;;1.77;;
2494;SDS011;1258;48.336;14.322;2023-10-08T02:19:09;3.53;;;2.00;;
2494;SDS011;1258;48.336;14.322;2023-10-08T02:21:36;2.60;;;1.73;;
2494;SDS011;1258;48.336;14.322;2023-10-08T02:24:07;3.40;;;2.37;;
2494;SDS011;1258;48.336;14.322;2023-10-08T02:26:36;3.40;;;1.93;;
2494;SDS011;1258;48.336;14.322;2023-10-08T02:29:04;2.93;;;2.23;;
2494;SDS011;1258;48.336;14.322;2023-10-08T02:31:35;3.00;;;2.13;;
2494;SDS011;1258;48.336;14.322;2023-10-08T02:34:03;2.83;;;1.97;;
2494;SDS011;1258;48.336;14.322;2023-10-08T02:36:32;2.63;;;1.70;;
2494;SDS011;1258;48.336;14.322;2023-10-08T02:39:02;3.13;;;1.90;;
2494;SDS011;1258;48.336;14.322;2023-10-08T02:41:32;3.27;;;2.10;;
2494;SDS011;1258;48.336;14.322;2023-10-08T02:43:59;2.80;;;2.10;;
2494;SDS011;1258;48.336;14.322;2023-10-08T02:46:27;3.20;;;2.00;;
2494;SDS011;1258;48.336;14.322;2023-10-08T02:48:58;3.20;;;2.20;;
2494;SDS011;1258;48.336;14.322;2023-10-08T02:51:28;3.83;;;1.87;;
2494;SDS011;1258;48.336;14.322;2023-10-08T02:53:55;3.27;;;2.27;;
2494;SDS011;1258;48.336;14.322;2023-10-08T02:56:22;2.83;;;2.03;;
2494;SDS011;1258;48.336;14.322;2023-10-08T02:58:49;2.80;;;2.10;;
2494;SDS011;1258;48.336;14.322;2023-10-08T03:01:16;2.53;;;1.53;;
2494;SDS011;1258;48.336;14.322;2023-10-08T03:03:44;3.53;;;2.67;;
2494;SDS011;1258;48.336;14.322;2023-10-08T03:06:12;6.30;;;2.70;;
2494;SDS011;1258;48.336;14.322;2023-10-08T03:08:40;2.83;;;1.93;;
2494;SDS011;1258;48.336;14.322;2023-10-08T03:11:08;2.87;;;2.03;;
2494;SDS011;1258;48.336;14.322;2023-10-08T03:13:42;2.93;;;1.80;;
2494;SDS011;1258;48.336;14.322;2023-10-08T03:16:11;3.23;;;2.30;;
2494;SDS011;1258;48.336;14.322;2023-10-08T03:18:39;2.50;;;1.97;;
2494;SDS011;1258;48.336;14.322;2023-10-08T03:21:11;3.80;;;2.47;;
2494;SDS011;1258;48.336;14.322;2023-10-08T03:24:07;2.57;;;1.57;;
2494;SDS011;1258;48.336;14.322;2023-10-08T03:26:38;3.20;;;1.97;;
2494;SDS011;1258;48.336;14.322;2023-10-08T03:29:05;3.53;;;2.47;;
2494;SDS011;1258;48.336;14.322;2023-10-08T03:31:33;4.10;;;2.03;;
2494;SDS011;1258;48.336;14.322;2023-10-08T03:34:15;2.40;;;1.70;;
2494;SDS011;1258;48.336;14.322;2023-10-08T03:36:45;3.00;;;1.80;;
2494;SDS011;1258;48.336;14.322;2023-10-08T03:39:15;2.97;;;1.80;;
2494;SDS011;1258;48.336;14.322;2023-10-08T03:41:44;3.33;;;2.20;;
2494;SDS011;1258;48.336;14.322;2023-10-08T03:44:24;3.73;;;2.53;;
2494;SDS011;1258;48.336;14.322;2023-10-08T03:46:54;2.97;;;2.13;;
2494;SDS011;1258;48.336;14.322;2023-10-08T03:49:22;2.87;;;1.93;;
2494;SDS011;1258;48.336;14.322;2023-10-08T03:51:54;6.10;;;2.17;;
2494;SDS011;1258;48.336;14.322;2023-10-08T03:54:22;3.87;;;2.20;;
2494;SDS011;1258;48.336;14.322;2023-10-08T03:56:54;2.57;;;1.87;;
2494;SDS011;1258;48.336;14.322;2023-10-08T03:59:22;3.77;;;2.40;;
2494;SDS011;1258;48.336;14.322;2023-10-08T04:01:56;3.40;;;2.67;;
2494;SDS011;1258;48.336;14.322;2023-10-08T04:04:34;2.93;;;1.87;;
2494;SDS011;1258;48.336;14.322;2023-10-08T04:07:17;3.33;;;2.27;;
2494;SDS011;1258;48.336;14.322;2023-10-08T04:10:24;2.80;;;1.90;;
2494;SDS011;1258;48.336;14.322;2023-10-08T04:13:33;3.30;;;2.33;;
2494;SDS011;1258;48.336;14.322;2023-10-08T04:16:04;4.83;;;2.13;;
2494;SDS011;1258;48.336;14.322;2023-10-08T04:18:31;4.17;;;2.10;;
2494;SDS011;1258;48.336;14.322;2023-10-08T04:21:05;2.77;;;2.30;;
2494;SDS011;1258;48.336;14.322;2023-10-08T04:23:39;2.90;;;2.10;;
2494;SDS011;1258;48.336;14.322;2023-10-08T04:26:09;3.20;;;1.97;;
2494;SDS011;1258;48.336;14.322;2023-10-08T04:28:37;3.50;;;2.50;;
2494;SDS011;1258;48.336;14.322;2023-10-08T04:31:06;3.50;;;2.40;;
2494;SDS011;1258;48.336;14.322;2023-10-08T04:33:41;2.33;;;1.73;;
2494;SDS011;1258;48.336;14.322;2023-10-08T04:36:09;5.43;;;2.20;;
2494;SDS011;1258;48.336;14.322;2023-10-08T04:38:44;3.70;;;2.87;;
2494;SDS011;1258;48.336;14.322;2023-10-08T04:41:13;3.80;;;2.50;;
2494;SDS011;1258;48.336;14.322;2023-10-08T04:43:44;3.03;;;2.10;;
2494;SDS011;1258;48.336;14.322;2023-10-08T04:46:14;3.10;;;1.93;;
2494;SDS011;1258;48.336;14.322;2023-10-08T04:49:04;2.43;;;1.70;;
2494;SDS011;1258;48.336;14.322;2023-10-08T04:51:34;3.80;;;2.00;;
2494;SDS011;1258;48.336;14.322;2023-10-08T04:54:10;2.53;;;1.70;;
2494;SDS011;1258;48.336;14.322;2023-10-08T04:56:42;3.27;;;1.93;;
2494;SDS011;1258;48.336;14.322;2023-10-08T04:59:09;4.50;;;1.80;;
2494;SDS011;1258;48.336;14.322;2023-10-08T05:01:37;3.00;;;2.07;;
2494;SDS011;1258;48.336;14.322;2023-10-08T05:04:12;3.90;;;1.80;;
2494;SDS011;1258;48.336;14.322;2023-10-08T05:06:48;2.80;;;1.90;;
2494;SDS011;1258;48.336;14.322;2023-10-08T05:09:43;2.53;;;1.70;;
2494;SDS011;1258;48.336;14.322;2023-10-08T05:12:17;3.40;;;2.00;;
2494;SDS011;1258;48.336;14.322;2023-10-08T05:15:03;2.30;;;1.80;;
2494;SDS011;1258;48.336;14.322;2023-10-08T05:17:50;2.70;;;2.07;;
2494;SDS011;1258;48.336;14.322;2023-10-08T05:20:34;2.40;;;1.40;;
2494;SDS011;1258;48.336;14.322;2023-10-08T05:23:10;2.40;;;1.63;;
2494;SDS011;1258;48.336;14.322;2023-10-08T05:26:10;2.30;;;1.70;;
2494;SDS011;1258;48.336;14.322;2023-10-08T05:28:45;3.80;;;2.40;;
2494;SDS011;1258;48.336;14.322;2023-10-08T05:31:26;2.37;;;1.47;;
2494;SDS011;1258;48.336;14.322;2023-10-08T05:34:11;2.50;;;1.60;;
2494;SDS011;1258;48.336;14.322;2023-10-08T05:36:48;2.37;;;1.60;;
2494;SDS011;1258;48.336;14.322;2023-10-08T05:39:40;2.83;;;1.57;;
2494;SDS011;1258;48.336;14.322;2023-10-08T05:42:13;2.20;;;1.23;;
2494;SDS011;1258;48.336;14.322;2023-10-08T05:44:42;2.00;;;1.23;;
2494;SDS011;1258;48.336;14.322;2023-10-08T05:47:32;1.83;;;1.07;;
2494;SDS011;1258;48.336;14.322;2023-10-08T05:50:06;2.53;;;1.80;;
2494;SDS011;1258;48.336;14.322;2023-10-08T05:52:50;2.40;;;1.50;;
2494;SDS011;1258;48.336;14.322;2023-10-08T05:55:28;2.40;;;1.57;;
2494;SDS011;1258;48.336;14.322;2023-10-08T05:58:03;2.70;;;1.50;;
2494;SDS011;1258;48.336;14.322;2023-10-08T06:00:49;2.50;;;1.60;;
2494;SDS011;1258;48.336;14.322;2023-10-08T06:03:34;1.77;;;1.00;;
2494;SDS011;1258;48.336;14.322;2023-10-08T06:06:14;2.47;;;1.40;;
2494;SDS011;1258;48.336;14.322;2023-10-08T06:08:51;2.80;;;1.20;;
2494;SDS011;1258;48.336;14.322;2023-10-08T06:11:33;1.93;;;1.17;;
2494;SDS011;1258;48.336;14.322;2023-10-08T06:14:11;2.07;;;1.13;;
2494;SDS011;1258;48.336;14.322;2023-10-08T06:16:42;2.50;;;1.63;;
2494;SDS011;1258;48.336;14.322;2023-10-08T06:19:12;2.70;;;2.07;;
2494;SDS011;1258;48.336;14.322;2023-10-08T06:21:40;2.50;;;1.60;;
2494;SDS011;1258;48.336;14.322;2023-10-08T06:24:08;2.03;;;1.30;;
2494;SDS011;1258;48.336;14.322;2023-10-08T06:26:42;2.00;;;1.40;;
2494;SDS011;1258;48.336;14.322;2023-10-08T06:29:15;2.90;;;1.63;;
2494;SDS011;1258;48.336;14.322;2023-10-08T06:31:51;2.20;;;1.40;;
2494;SDS011;1258;48.336;14.322;2023-10-08T06:34:20;1.90;;;1.20;;
2494;SDS011;1258;48.336;14.322;2023-10-08T06:36:48;3.30;;;1.50;;
2494;SDS011;1258;48.336;14.322;2023-10-08T06:39:19;2.70;;;1.90;;
2494;SDS011;1258;48.336;14.322;2023-10-08T06:41:54;2.53;;;1.33;;
2494;SDS011;1258;48.336;14.322;2023-10-08T06:44:25;2.03;;;1.37;;
2494;SDS011;1258;48.336;14.322;2023-10-08T06:46:53;1.80;;;1.07;;
2494;SDS011;1258;48.336;14.322;2023-10-08T06:49:20;2.40;;;1.67;;
2494;SDS011;1258;48.336;14.322;2023-10-08T06:51:49;3.57;;;1.57;;
2494;SDS011;1258;48.336;14.322;2023-10-08T06:54:17;2.07;;;1.17;;
2494;SDS011;1258;48.336;14.322;2023-10-08T06:56:45;2.23;;;1.40;;
2494;SDS011;1258;48.336;14.322;2023-10-08T06:59:16;2.73;;;1.67;;
2494;SDS011;1258;48.336;14.322;2023-10-08T07:01:45;2.37;;;1.60;;
2494;SDS011;1258;48.336;14.322;2023-10-08T07:04:12;3.00;;;1.70;;
2494;SDS011;1258;48.336;14.322;2023-10-08T07:06:40;2.50;;;1.67;;
2494;SDS011;1258;48.336;14.322;2023-10-08T07:09:09;2.60;;;1.90;;
2494;SDS011;1258;48.336;14.322;2023-10-08T07:11:48;2.60;;;1.53;;
2494;SDS011;1258;48.336;14.322;2023-10-08T07:14:20;3.43;;;2.37;;
2494;SDS011;1258;48.336;14.322;2023-10-08T07:16:49;2.77;;;1.83;;
2494;SDS011;1258;48.336;14.322;2023-10-08T07:19:17;2.83;;;1.80;;
2494;SDS011;1258;48.336;14.322;2023-10-08T07:21:45;2.93;;;1.83;;
2494;SDS011;1258;48.336;14.322;2023-10-08T07:24:12;3.90;;;1.47;;
2494;SDS011;1258;48.336;14.322;2023-10-08T07:26:42;4.47;;;2.27;;
2494;SDS011;1258;48.336;14.322;2023-10-08T07:29:12;2.77;;;2.30;;
2494;SDS011;1258;48.336;14.322;2023-10-08T07:31:42;3.30;;;2.10;;
2494;SDS011;1258;48.336;14.322;2023-10-08T07:34:15;3.10;;;2.13;;
2494;SDS011;1258;48.336;14.322;2023-10-08T07:36:43;3.30;;;2.30;;
2494;SDS011;1258;48.336;14.322;2023-10-08T07:39:13;2.40;;;1.90;;
2494;SDS011;1258;48.336;14.322;2023-10-08T07:41:50;2.70;;;1.60;;
2494;SDS011;1258;48.336;14.322;2023-10-08T07:44:19;4.23;;;1.70;;
2494;SDS011;1258;48.336;14.322;2023-10-08T07:46:46;4.20;;;2.07;;
2494;SDS011;1258;48.336;14.322;2023-10-08T07:49:15;3.27;;;1.83;;
2494;SDS011;1258;48.336;14.322;2023-10-08T07:51:42;2.33;;;1.63;;
2494;SDS011;1258;48.336;14.322;2023-10-08T07:54:16;2.93;;;1.80;;
2494;SDS011;1258;48.336;14.322;2023-10-08T07:56:44;4.00;;;2.00;;
2494;SDS011;1258;48.336;14.322;2023-10-08T07:59:11;4.67;;;2.13;;
2494;SDS011;1258;48.336;14.322;2023-10-08T08:01:39;5.67;;;2.03;;
2494;SDS011;1258;48.336;14.322;2023-10-08T08:04:07;2.63;;;1.77;;
2494;SDS011;1258;48.336;14.322;2023-10-08T08:06:37;3.03;;;2.03;;
2494;SDS011;1258;48.336;14.322;2023-10-08T08:09:04;2.63;;;1.70;;
2494;SDS011;1258;48.336;14.322;2023-10-08T08:11:42;2.40;;;1.57;;
2494;SDS011;1258;48.336;14.322;2023-10-08T08:14:11;2.20;;;1.70;;
2494;SDS011;1258;48.336;14.322;2023-10-08T08:16:41;2.43;;;1.70;;
2494;SDS011;1258;48.336;14.322;2023-10-08T08:19:11;2.37;;;1.57;;
2494;SDS011;1258;48.336;14.322;2023-10-08T08:21:42;3.90;;;2.10;;
2494;SDS011;1258;48.336;14.322;2023-10-08T08:24:11;3.07;;;2.10;;
2494;SDS011;1258;48.336;14.322;2023-10-08T08:26:38;2.93;;;1.83;;
2494;SDS011;1258;48.336;14.322;2023-10-08T08:29:09;2.90;;;1.53;;
2494;SDS011;1258;48.336;14.322;2023-10-08T08:31:40;3.40;;;1.80;;
2494;SDS011;1258;48.336;14.322;2023-10-08T08:34:11;2.40;;;1.80;;
2494;SDS011;1258;48.336;14.322;2023-10-08T08:36:46;4.40;;;1.97;;
2494;SDS011;1258;48.336;14.322;2023-10-08T08:39:14;2.00;;;1.03;;
2494;SDS011;1258;48.336;14.322;2023-10-08T08:41:54;2.70;;;1.60;;
2494;SDS011;1258;48.336;14.322;2023-10-08T08:44:27;2.70;;;1.90;;
2494;SDS011;1258;48.336;14.322;2023-10-08T08:46:56;2.47;;;1.73;;
2494;SDS011;1258;48.336;14.322;2023-10-08T08:49:26;3.03;;;2.00;;
2494;SDS011;1258;48.336;14.322;2023-10-08T08:51:55;2.90;;;1.67;;
2494;SDS011;1258;48.336;14.322;2023-10-08T08:54:26;2.53;;;1.57;;
2494;SDS011;1258;48.336;14.322;2023-10-08T08:56:55;1.80;;;1.17;;
2494;SDS011;1258;48.336;14.322;2023-10-08T08:59:25;3.20;;;1.67;;
2494;SDS011;1258;48.336;14.322;2023-10-08T09:01:55;2.37;;;1.47;;
2494;SDS011;1258;48.336;14.322;2023-10-08T09:04:29;2.60;;;1.77;;
2494;SDS011;1258;48.336;14.322;2023-10-08T09:06:59;3.00;;;1.80;;
2494;SDS011;1258;48.336;14.322;2023-10-08T09:09:32;3.23;;;1.87;;
2494;SDS011;1258;48.336;14.322;2023-10-08T09:12:00;2.80;;;1.50;;
2494;SDS011;1258;48.336;14.322;2023-10-08T09:14:29;2.73;;;1.70;;
2494;SDS011;1258;48.336;14.322;2023-10-08T09:16:57;2.50;;;1.50;;
2494;SDS011;1258;48.336;14.322;2023-10-08T09:19:25;3.40;;;1.80;;
2494;SDS011;1258;48.336;14.322;2023-10-08T09:22:01;2.90;;;1.83;;
2494;SDS011;1258;48.336;14.322;2023-10-08T09:24:29;2.40;;;1.67;;
2494;SDS011;1258;48.336;14.322;2023-10-08T09:26:58;2.17;;;1.40;;
2494;SDS011;1258;48.336;14.322;2023-10-08T09:29:26;4.77;;;1.90;;
2494;SDS011;1258;48.336;14.322;2023-10-08T09:31:53;2.60;;;1.80;;
2494;SDS011;1258;48.336;14.322;2023-10-08T09:34:22;2.97;;;1.43;;
2494;SDS011;1258;48.336;14.322;2023-10-08T09:36:53;2.53;;;1.50;;
2494;SDS011;1258;48.336;14.322;2023-10-08T09:39:23;3.50;;;1.50;;
2494;SDS011;1258;48.336;14.322;2023-10-08T09:41:53;2.10;;;1.47;;
2494;SDS011;1258;48.336;14.322;2023-10-08T09:44:20;2.70;;;1.50;;
2494;SDS011;1258;48.336;14.322;2023-10-08T09:46:51;3.43;;;1.67;;
2494;SDS011;1258;48.336;14.322;2023-10-08T09:49:23;3.50;;;2.17;;
2494;SDS011;1258;48.336;14.322;2023-10-08T09:51:57;2.10;;;1.60;;
2494;SDS011;1258;48.336;14.322;2023-10-08T09:54:33;2.23;;;1.50;;
2494;SDS011;1258;48.336;14.322;2023-10-08T09:57:07;2.80;;;1.90;;
2494;SDS011;1258;48.336;14.322;2023-10-08T09:59:35;2.70;;;1.90;;
2494;SDS011;1258;48.336;14.322;2023-10-08T10:02:03;2.87;;;1.90;;
2494;SDS011;1258;48.336;14.322;2023-10-08T10:04:35;3.80;;;1.93;;
2494;SDS011;1258;48.336;14.322;2023-10-08T10:07:07;3.10;;;1.97;;
2494;SDS011;1258;48.336;14.322;2023-10-08T10:09:39;3.00;;;1.67;;
2494;SDS011;1258;48.336;14.322;2023-10-08T10:12:10;4.63;;;2.33;;
2494;SDS011;1258;48.336;14.322;2023-10-08T10:14:42;3.87;;;1.80;;
2494;SDS011;1258;48.336;14.322;2023-10-08T10:17:13;2.93;;;1.80;;
2494;SDS011;1258;48.336;14.322;2023-10-08T10:19:43;3.00;;;2.27;;
2494;SDS011;1258;48.336;14.322;2023-10-08T10:22:13;4.53;;;2.33;;
2494;SDS011;1258;48.336;14.322;2023-10-08T10:24:43;3.10;;;1.90;;
2494;SDS011;1258;48.336;14.322;2023-10-08T10:27:14;3.30;;;2.10;;
2494;SDS011;1258;48.336;14.322;2023-10-08T10:29:42;2.27;;;1.47;;
2494;SDS011;1258;48.336;14.322;2023-10-08T10:32:11;3.03;;;1.90;;
2494;SDS011;1258;48.336;14.322;2023-10-08T10:34:40;2.97;;;1.90;;
2494;SDS011;1258;48.336;14.322;2023-10-08T10:37:08;2.87;;;2.00;;
2494;SDS011;1258;48.336;14.322;2023-10-08T10:39:51;7.00;;;2.83;;
2494;SDS011;1258;48.336;14.322;2023-10-08T10:42:20;4.87;;;2.20;;
2494;SDS011;1258;48.336;14.322;2023-10-08T10:44:47;2.67;;;2.03;;
2494;SDS011;1258;48.336;14.322;2023-10-08T10:47:14;2.60;;;1.70;;
2494;SDS011;1258;48.336;14.322;2023-10-08T10:50:07;2.90;;;2.03;;
2494;SDS011;1258;48.336;14.322;2023-10-08T10:52:56;4.00;;;2.43;;
2494;SDS011;1258;48.336;14.322;2023-10-08T10:55:25;2.67;;;1.20;;
2494;SDS011;1258;48.336;14.322;2023-10-08T10:57:56;3.07;;;1.67;;
2494;SDS011;1258;48.336;14.322;2023-10-08T11:00:29;2.90;;;1.60;;
2494;SDS011;1258;48.336;14.322;2023-10-08T11:03:14;3.07;;;2.23;;
2494;SDS011;1258;48.336;14.322;2023-10-08T11:05:50;2.67;;;1.47;;
2494;SDS011;1258;48.336;14.322;2023-10-08T11:08:21;3.47;;;1.93;;
2494;SDS011;1258;48.336;14.322;2023-10-08T11:10:52;2.80;;;1.57;;
2494;SDS011;1258;48.336;14.322;2023-10-08T11:13:24;2.97;;;1.30;;
2494;SDS011;1258;48.336;14.322;2023-10-08T11:15:53;3.13;;;1.93;;
2494;SDS011;1258;48.336;14.322;2023-10-08T11:18:23;3.20;;;1.73;;
2494;SDS011;1258;48.336;14.322;2023-10-08T11:20:53;3.13;;;1.70;;
2494;SDS011;1258;48.336;14.322;2023-10-08T11:23:41;5.23;;;1.90;;
2494;SDS011;1258;48.336;14.322;2023-10-08T11:26:10;2.40;;;1.70;;
2494;SDS011;1258;48.336;14.322;2023-10-08T11:28:37;2.37;;;1.77;;
2494;SDS011;1258;48.336;14.322;2023-10-08T11:31:10;3.50;;;1.80;;
2494;SDS011;1258;48.336;14.322;2023-10-08T11:33:39;3.63;;;2.13;;
2494;SDS011;1258;48.336;14.322;2023-10-08T11:36:07;2.80;;;1.90;;
2494;SDS011;1258;48.336;14.322;2023-10-08T11:38:43;2.90;;;2.00;;
2494;SDS011;1258;48.336;14.322;2023-10-08T11:41:14;3.17;;;2.10;;
2494;SDS011;1258;48.336;14.322;2023-10-08T11:43:48;3.10;;;2.10;;
2494;SDS011;1258;48.336;14.322;2023-10-08T11:46:19;3.60;;;2.33;;
2494;SDS011;1258;48.336;14.322;2023-10-08T11:48:47;2.87;;;1.63;;
2494;SDS011;1258;48.336;14.322;2023-10-08T11:51:15;3.80;;;1.83;;
2494;SDS011;1258;48.336;14.322;2023-10-08T11:53:42;3.00;;;1.70;;
2494;SDS011;1258;48.336;14.322;2023-10-08T11:56:10;4.33;;;2.00;;
2494;SDS011;1258;48.336;14.322;2023-10-08T11:58:40;2.60;;;1.70;;
2494;SDS011;1258;48.336;14.322;2023-10-08T12:01:09;3.10;;;1.93;;
2494;SDS011;1258;48.336;14.322;2023-10-08T12:03:41;2.67;;;1.83;;
2494;SDS011;1258;48.336;14.322;2023-10-08T12:06:09;5.13;;;1.60;;
2494;SDS011;1258;48.336;14.322;2023-10-08T12:08:40;3.27;;;2.10;;
2494;SDS011;1258;48.336;14.322;2023-10-08T12:11:10;4.67;;;2.50;;
2494;SDS011;1258;48.336;14.322;2023-10-08T12:13:39;3.50;;;2.30;;
2494;SDS011;1258;48.336;14.322;2023-10-08T12:16:10;3.60;;;2.27;;
2494;SDS011;1258;48.336;14.322;2023-10-08T12:18:43;3.40;;;2.10;;
2494;SDS011;1258;48.336;14.322;2023-10-08T12:21:13;3.57;;;2.10;;
2494;SDS011;1258;48.336;14.322;2023-10-08T12:23:42;3.83;;;2.20;;
2494;SDS011;1258;48.336;14.322;2023-10-08T12:26:11;2.60;;;1.90;;
2494;SDS011;1258;48.336;14.322;2023-10-08T12:28:42;3.20;;;2.10;;
2494;SDS011;1258;48.336;14.322;2023-10-08T12:31:11;5.00;;;2.80;;
2494;SDS011;1258;48.336;14.322;2023-10-08T12:33:40;3.90;;;2.77;;
2494;SDS011;1258;48.336;14.322;2023-10-08T12:36:09;4.40;;;2.20;;
2494;SDS011;1258;48.336;14.322;2023-10-08T12:38:37;3.13;;;2.07;;
2494;SDS011;1258;48.336;14.322;2023-10-08T12:41:04;3.17;;;1.90;;
2494;SDS011;1258;48.336;14.322;2023-10-08T12:43:37;4.00;;;2.20;;
2494;SDS011;1258;48.336;14.322;2023-10-08T12:46:08;4.20;;;2.10;;
2494;SDS011;1258;48.336;14.322;2023-10-08T12:48:43;3.47;;;1.93;;
2494;SDS011;1258;48.336;14.322;2023-10-08T12:51:13;2.60;;;1.53;;
2494;SDS011;1258;48.336;14.322;2023-10-08T12:53:41;3.10;;;1.83;;
2494;SDS011;1258;48.336;14.322;2023-10-08T12:56:15;2.30;;;1.30;;
2494;SDS011;1258;48.336;14.322;2023-10-08T12:58:46;2.07;;;1.20;;
2494;SDS011;1258;48.336;14.322;2023-10-08T13:01:15;3.53;;;2.00;;
2494;SDS011;1258;48.336;14.322;2023-10-08T13:03:43;1.90;;;1.17;;
2494;SDS011;1258;48.336;14.322;2023-10-08T13:06:13;1.97;;;1.10;;
2494;SDS011;1258;48.336;14.322;2023-10-08T13:08:47;2.47;;;1.00;;
2494;SDS011;1258;48.336;14.322;2023-10-08T13:11:14;2.27;;;1.00;;
2494;SDS011;1258;48.336;14.322;2023-10-08T13:13:47;2.33;;;0.73;;
2494;SDS011;1258;48.336;14.322;2023-10-08T13:16:16;1.30;;;0.80;;
2494;SDS011;1258;48.336;14.322;2023-10-08T13:18:43;1.83;;;1.00;;
2494;SDS011;1258;48.336;14.322;2023-10-08T13:21:10;1.80;;;0.80;;
2494;SDS011;1258;48.336;14.322;2023-10-08T13:23:37;1.40;;;0.70;;
2494;SDS011;1258;48.336;14.322;2023-10-08T13:26:05;1.77;;;0.80;;
2494;SDS011;1258;48.336;14.322;2023-10-08T13:28:32;1.30;;;0.50;;
2494;SDS011;1258;48.336;14.322;2023-10-08T13:31:00;1.20;;;0.50;;
2494;SDS011;1258;48.336;14.322;2023-10-08T13:33:35;1.40;;;0.60;;
2494;SDS011;1258;48.336;14.322;2023-10-08T13:36:05;1.13;;;0.40;;
2494;SDS011;1258;48.336;14.322;2023-10-08T13:38:34;1.30;;;0.57;;
2494;SDS011;1258;48.336;14.322;2023-10-08T13:41:01;1.30;;;0.60;;
2494;SDS011;1258;48.336;14.322;2023-10-08T13:43:29;1.37;;;0.60;;
2494;SDS011;1258;48.336;14.322;2023-10-08T13:46:03;1.37;;;0.77;;
2494;SDS011;1258;48.336;14.322;2023-10-08T13:48:32;2.37;;;0.70;;
2494;SDS011;1258;48.336;14.322;2023-10-08T13:51:02;1.90;;;1.43;;
2494;SDS011;1258;48.336;14.322;2023-10-08T13:53:30;2.90;;;2.10;;
2494;SDS011;1258;48.336;14.322;2023-10-08T13:55:58;1.93;;;1.47;;
2494;SDS011;1258;48.336;14.322;2023-10-08T13:58:27;1.50;;;0.83;;
2494;SDS011;1258;48.336;14.322;2023-10-08T14:00:55;1.60;;;0.60;;
2494;SDS011;1258;48.336;14.322;2023-10-08T14:03:25;1.90;;;0.73;;
2494;SDS011;1258;48.336;14.322;2023-10-08T14:05:52;1.60;;;0.70;;
2494;SDS011;1258;48.336;14.322;2023-10-08T14:08:21;1.40;;;0.60;;
2494;SDS011;1258;48.336;14.322;2023-10-08T14:10:50;1.67;;;0.60;;
2494;SDS011;1258;48.336;14.322;2023-10-08T14:13:18;1.20;;;0.50;;
2494;SDS011;1258;48.336;14.322;2023-10-08T14:15:45;1.13;;;0.47;;
2494;SDS011;1258;48.336;14.322;2023-10-08T14:18:15;1.20;;;0.60;;
2494;SDS011;1258;48.336;14.322;2023-10-08T14:20:43;1.30;;;0.70;;
2494;SDS011;1258;48.336;14.322;2023-10-08T14:23:18;1.30;;;0.70;;
2494;SDS011;1258;48.336;14.322;2023-10-08T14:25:50;1.30;;;0.60;;
2494;SDS011;1258;48.336;14.322;2023-10-08T14:28:17;1.20;;;0.47;;
2494;SDS011;1258;48.336;14.322;2023-10-08T14:31:05;1.10;;;0.50;;
2494;SDS011;1258;48.336;14.322;2023-10-08T14:33:33;1.23;;;0.57;;
2494;SDS011;1258;48.336;14.322;2023-10-08T14:36:06;1.20;;;0.50;;
2494;SDS011;1258;48.336;14.322;2023-10-08T14:38:53;1.23;;;0.60;;
2494;SDS011;1258;48.336;14.322;2023-10-08T14:41:37;1.33;;;0.53;;
2494;SDS011;1258;48.336;14.322;2023-10-08T14:44:22;2.27;;;0.80;;
2494;SDS011;1258;48.336;14.322;2023-10-08T14:46:49;1.60;;;0.80;;
2494;SDS011;1258;48.336;14.322;2023-10-08T14:49:16;1.30;;;0.70;;
2494;SDS011;1258;48.336;14.322;2023-10-08T14:51:43;1.10;;;0.40;;
2494;SDS011;1258;48.336;14.322;2023-10-08T14:54:15;1.40;;;0.60;;
2494;SDS011;1258;48.336;14.322;2023-10-08T14:56:42;1.17;;;0.40;;
2494;SDS011;1258;48.336;14.322;2023-10-08T14:59:09;1.20;;;0.43;;
2494;SDS011;1258;48.336;14.322;2023-10-08T15:01:36;1.40;;;0.80;;
2494;SDS011;1258;48.336;14.322;2023-10-08T15:04:03;1.27;;;0.57;;
2494;SDS011;1258;48.336;14.322;2023-10-08T15:06:30;1.17;;;0.57;;
2494;SDS011;1258;48.336;14.322;2023-10-08T15:08:58;1.20;;;0.50;;
2494;SDS011;1258;48.336;14.322;2023-10-08T15:11:27;1.30;;;0.57;;
2494;SDS011;1258;48.336;14.322;2023-10-08T15:13:55;1.10;;;0.37;;
2494;SDS011;1258;48.336;14.322;2023-10-08T15:16:24;1.20;;;0.50;;
2494;SDS011;1258;48.336;14.322;2023-10-08T15:18:51;1.30;;;0.40;;
2494;SDS011;1258;48.336;14.322;2023-10-08T15:21:20;1.13;;;0.40;;
2494;SDS011;1258;48.336;14.322;2023-10-08T15:23:49;1.10;;;0.40;;
2494;SDS011;1258;48.336;14.322;2023-10-08T15:26:16;1.43;;;0.80;;